sensor_id;sensor_type;location;lat;lon;timestamp;P1;durP1;ratioP1;P2;durP2;ratioP2
12814;SDS011;6472;52.328;13.070;2022-11-03T00:01:46;8.60;;;4.30;;
12814;SDS011;6472;52.328;13.070;2022-11-03T00:04:16;7.67;;;4.30;;
12814;SDS011;6472;52.328;13.070;2022-11-03T00:06:45;6.33;;;3.73;;
12814;SDS011;6472;52.328;13.070;2022-11-03T00:09:15;7.93;;;4.33;;
12814;SDS011;6472;52.328;13.070;2022-11-03T00:11:45;11.77;;;4.53;;
12814;SDS011;6472;52.328;13.070;2022-11-03T00:14:16;6.80;;;4.47;;
12814;SDS011;6472;52.328;13.070;2022-11-03T00:16:45;5.60;;;3.77;;
12814;SDS011;6472;52.328;13.070;2022-11-03T00:19:13;4.77;;;3.60;;
12814;SDS011;6472;52.328;13.070;2022-11-03T00:21:42;7.30;;;3.60;;
12814;SDS011;6472;52.328;13.070;2022-11-03T00:24:11;5.97;;;4.63;;
12814;SDS011;6472;52.328;13.070;2022-11-03T00:26:39;6.27;;;4.17;;
12814;SDS011;6472;52.328;13.070;2022-11-03T00:29:07;5.57;;;4.10;;
12814;SDS011;6472;52.328;13.070;2022-11-03T00:31:37;5.50;;;3.80;;
12814;SDS011;6472;52.328;13.070;2022-11-03T00:34:08;6.87;;;4.17;;
12814;SDS011;6472;52.328;13.070;2022-11-03T00:36:37;5.33;;;3.60;;
12814;SDS011;6472;52.328;13.070;2022-11-03T00:39:06;7.33;;;4.23;;
12814;SDS011;6472;52.328;13.070;2022-11-03T00:41:34;3.77;;;3.33;;
12814;SDS011;6472;52.328;13.070;2022-11-03T00:44:02;6.33;;;3.97;;
12814;SDS011;6472;52.328;13.070;2022-11-03T00:46:31;5.77;;;3.90;;
12814;SDS011;6472;52.328;13.070;2022-11-03T00:49:01;6.40;;;3.87;;
12814;SDS011;6472;52.328;13.070;2022-11-03T00:51:31;6.23;;;3.87;;
12814;SDS011;6472;52.328;13.070;2022-11-03T00:54:02;7.67;;;3.60;;
12814;SDS011;6472;52.328;13.070;2022-11-03T00:56:31;6.83;;;3.93;;
12814;SDS011;6472;52.328;13.070;2022-11-03T00:59:01;4.93;;;3.67;;
12814;SDS011;6472;52.328;13.070;2022-11-03T01:01:30;4.97;;;2.90;;
12814;SDS011;6472;52.328;13.070;2022-11-03T01:04:04;8.53;;;4.83;;
12814;SDS011;6472;52.328;13.070;2022-11-03T01:06:52;9.13;;;4.50;;
12814;SDS011;6472;52.328;13.070;2022-11-03T01:09:23;5.77;;;4.17;;
12814;SDS011;6472;52.328;13.070;2022-11-03T01:11:55;6.53;;;4.27;;
12814;SDS011;6472;52.328;13.070;2022-11-03T01:14:24;8.30;;;4.50;;
12814;SDS011;6472;52.328;13.070;2022-11-03T01:16:54;3.80;;;3.40;;
12814;SDS011;6472;52.328;13.070;2022-11-03T01:19:22;8.17;;;4.30;;
12814;SDS011;6472;52.328;13.070;2022-11-03T01:21:52;5.33;;;3.90;;
12814;SDS011;6472;52.328;13.070;2022-11-03T01:24:20;6.77;;;4.10;;
12814;SDS011;6472;52.328;13.070;2022-11-03T01:26:48;4.03;;;3.60;;
12814;SDS011;6472;52.328;13.070;2022-11-03T01:29:17;8.10;;;4.03;;
12814;SDS011;6472;52.328;13.070;2022-11-03T01:31:45;4.50;;;3.10;;
12814;SDS011;6472;52.328;13.070;2022-11-03T01:34:13;7.70;;;3.73;;
12814;SDS011;6472;52.328;13.070;2022-11-03T01:36:42;7.60;;;4.10;;
12814;SDS011;6472;52.328;13.070;2022-11-03T01:39:13;6.10;;;4.03;;
12814;SDS011;6472;52.328;13.070;2022-11-03T01:41:44;4.03;;;3.03;;
12814;SDS011;6472;52.328;13.070;2022-11-03T01:44:24;5.00;;;3.50;;
12814;SDS011;6472;52.328;13.070;2022-11-03T01:46:56;9.13;;;4.07;;
12814;SDS011;6472;52.328;13.070;2022-11-03T01:49:29;4.00;;;3.57;;
12814;SDS011;6472;52.328;13.070;2022-11-03T01:52:02;5.77;;;3.10;;
12814;SDS011;6472;52.328;13.070;2022-11-03T01:54:38;5.77;;;3.53;;
12814;SDS011;6472;52.328;13.070;2022-11-03T01:57:09;7.60;;;3.50;;
12814;SDS011;6472;52.328;13.070;2022-11-03T01:59:39;5.10;;;2.93;;
12814;SDS011;6472;52.328;13.070;2022-11-03T02:02:08;4.47;;;2.90;;
12814;SDS011;6472;52.328;13.070;2022-11-03T02:04:37;6.40;;;2.57;;
12814;SDS011;6472;52.328;13.070;2022-11-03T02:07:08;2.87;;;2.00;;
12814;SDS011;6472;52.328;13.070;2022-11-03T02:09:43;2.97;;;2.07;;
12814;SDS011;6472;52.328;13.070;2022-11-03T02:12:11;6.30;;;3.00;;
12814;SDS011;6472;52.328;13.070;2022-11-03T02:14:41;4.37;;;2.33;;
12814;SDS011;6472;52.328;13.070;2022-11-03T02:17:12;3.17;;;2.80;;
12814;SDS011;6472;52.328;13.070;2022-11-03T02:19:43;4.00;;;2.43;;
12814;SDS011;6472;52.328;13.070;2022-11-03T02:22:18;6.17;;;3.13;;
12814;SDS011;6472;52.328;13.070;2022-11-03T02:24:58;3.60;;;2.00;;
12814;SDS011;6472;52.328;13.070;2022-11-03T02:27:34;4.60;;;2.90;;
12814;SDS011;6472;52.328;13.070;2022-11-03T02:30:02;5.80;;;2.40;;
12814;SDS011;6472;52.328;13.070;2022-11-03T02:32:32;4.60;;;2.57;;
12814;SDS011;6472;52.328;13.070;2022-11-03T02:35:07;4.23;;;1.77;;
12814;SDS011;6472;52.328;13.070;2022-11-03T02:37:41;4.13;;;2.90;;
12814;SDS011;6472;52.328;13.070;2022-11-03T02:40:12;7.20;;;2.60;;
12814;SDS011;6472;52.328;13.070;2022-11-03T02:42:45;6.57;;;3.33;;
12814;SDS011;6472;52.328;13.070;2022-11-03T02:45:16;2.40;;;1.87;;
12814;SDS011;6472;52.328;13.070;2022-11-03T02:47:47;2.03;;;1.90;;
12814;SDS011;6472;52.328;13.070;2022-11-03T02:50:16;5.87;;;2.50;;
12814;SDS011;6472;52.328;13.070;2022-11-03T02:52:45;6.10;;;2.23;;
12814;SDS011;6472;52.328;13.070;2022-11-03T02:55:14;6.63;;;2.53;;
12814;SDS011;6472;52.328;13.070;2022-11-03T02:57:52;4.57;;;2.20;;
12814;SDS011;6472;52.328;13.070;2022-11-03T03:00:23;2.57;;;2.20;;
12814;SDS011;6472;52.328;13.070;2022-11-03T03:02:54;6.93;;;2.43;;
12814;SDS011;6472;52.328;13.070;2022-11-03T03:05:29;6.50;;;2.37;;
12814;SDS011;6472;52.328;13.070;2022-11-03T03:10:50;1.53;;;1.43;;
12814;SDS011;6472;52.328;13.070;2022-11-03T03:13:21;4.07;;;2.30;;
12814;SDS011;6472;52.328;13.070;2022-11-03T03:15:54;3.43;;;1.63;;
12814;SDS011;6472;52.328;13.070;2022-11-03T03:18:36;10.83;;;2.80;;
12814;SDS011;6472;52.328;13.070;2022-11-03T03:21:16;2.37;;;1.80;;
12814;SDS011;6472;52.328;13.070;2022-11-03T03:23:49;3.37;;;1.67;;
12814;SDS011;6472;52.328;13.070;2022-11-03T03:26:23;2.37;;;1.90;;
12814;SDS011;6472;52.328;13.070;2022-11-03T03:28:56;3.37;;;2.27;;
12814;SDS011;6472;52.328;13.070;2022-11-03T03:31:26;6.67;;;2.63;;
12814;SDS011;6472;52.328;13.070;2022-11-03T03:33:59;3.70;;;2.00;;
12814;SDS011;6472;52.328;13.070;2022-11-03T03:36:41;4.83;;;2.17;;
12814;SDS011;6472;52.328;13.070;2022-11-03T03:39:12;7.27;;;2.73;;
12814;SDS011;6472;52.328;13.070;2022-11-03T03:41:43;2.07;;;1.87;;
12814;SDS011;6472;52.328;13.070;2022-11-03T03:44:15;2.30;;;2.03;;
12814;SDS011;6472;52.328;13.070;2022-11-03T03:46:44;2.30;;;1.87;;
12814;SDS011;6472;52.328;13.070;2022-11-03T03:49:17;2.20;;;1.47;;
12814;SDS011;6472;52.328;13.070;2022-11-03T03:51:46;3.03;;;1.97;;
12814;SDS011;6472;52.328;13.070;2022-11-03T03:54:15;5.63;;;2.60;;
12814;SDS011;6472;52.328;13.070;2022-11-03T03:56:44;1.50;;;1.40;;
12814;SDS011;6472;52.328;13.070;2022-11-03T03:59:16;5.97;;;1.70;;
12814;SDS011;6472;52.328;13.070;2022-11-03T04:01:44;5.37;;;1.93;;
12814;SDS011;6472;52.328;13.070;2022-11-03T04:04:12;3.60;;;2.47;;
12814;SDS011;6472;52.328;13.070;2022-11-03T04:06:40;2.40;;;2.07;;
12814;SDS011;6472;52.328;13.070;2022-11-03T04:09:08;10.83;;;2.20;;
12814;SDS011;6472;52.328;13.070;2022-11-03T04:11:36;2.67;;;2.17;;
12814;SDS011;6472;52.328;13.070;2022-11-03T04:14:23;1.73;;;1.57;;
12814;SDS011;6472;52.328;13.070;2022-11-03T04:17:13;1.57;;;1.47;;
12814;SDS011;6472;52.328;13.070;2022-11-03T04:20:03;5.40;;;2.00;;
12814;SDS011;6472;52.328;13.070;2022-11-03T04:22:56;5.77;;;1.60;;
12814;SDS011;6472;52.328;13.070;2022-11-03T04:25:24;4.57;;;1.40;;
12814;SDS011;6472;52.328;13.070;2022-11-03T04:27:52;4.50;;;2.03;;
12814;SDS011;6472;52.328;13.070;2022-11-03T04:30:22;6.37;;;1.63;;
12814;SDS011;6472;52.328;13.070;2022-11-03T04:32:51;9.43;;;1.53;;
12814;SDS011;6472;52.328;13.070;2022-11-03T04:35:21;2.87;;;2.00;;
12814;SDS011;6472;52.328;13.070;2022-11-03T04:37:53;2.00;;;1.87;;
12814;SDS011;6472;52.328;13.070;2022-11-03T04:40:23;6.20;;;2.47;;
12814;SDS011;6472;52.328;13.070;2022-11-03T04:42:51;2.83;;;2.03;;
12814;SDS011;6472;52.328;13.070;2022-11-03T04:45:23;3.33;;;2.30;;
12814;SDS011;6472;52.328;13.070;2022-11-03T04:47:52;3.73;;;3.33;;
12814;SDS011;6472;52.328;13.070;2022-11-03T04:50:22;5.17;;;3.83;;
12814;SDS011;6472;52.328;13.070;2022-11-03T04:52:50;3.10;;;2.90;;
12814;SDS011;6472;52.328;13.070;2022-11-03T04:55:21;7.17;;;3.73;;
12814;SDS011;6472;52.328;13.070;2022-11-03T04:57:53;4.87;;;4.37;;
12814;SDS011;6472;52.328;13.070;2022-11-03T05:00:24;4.83;;;4.30;;
12814;SDS011;6472;52.328;13.070;2022-11-03T05:02:52;4.40;;;2.80;;
12814;SDS011;6472;52.328;13.070;2022-11-03T05:05:22;8.07;;;3.63;;
12814;SDS011;6472;52.328;13.070;2022-11-03T05:07:51;4.20;;;2.87;;
12814;SDS011;6472;52.328;13.070;2022-11-03T05:10:21;3.03;;;2.73;;
12814;SDS011;6472;52.328;13.070;2022-11-03T05:12:52;7.20;;;3.00;;
12814;SDS011;6472;52.328;13.070;2022-11-03T05:15:33;2.77;;;2.27;;
12814;SDS011;6472;52.328;13.070;2022-11-03T05:18:08;2.50;;;1.90;;
12814;SDS011;6472;52.328;13.070;2022-11-03T05:20:44;2.57;;;2.37;;
12814;SDS011;6472;52.328;13.070;2022-11-03T05:23:16;6.77;;;2.97;;
12814;SDS011;6472;52.328;13.070;2022-11-03T05:25:45;2.50;;;1.80;;
12814;SDS011;6472;52.328;13.070;2022-11-03T05:28:20;1.90;;;1.60;;
12814;SDS011;6472;52.328;13.070;2022-11-03T05:30:51;2.30;;;1.87;;
12814;SDS011;6472;52.328;13.070;2022-11-03T05:33:22;2.33;;;2.17;;
12814;SDS011;6472;52.328;13.070;2022-11-03T05:35:54;5.10;;;2.07;;
12814;SDS011;6472;52.328;13.070;2022-11-03T05:38:27;3.23;;;1.67;;
12814;SDS011;6472;52.328;13.070;2022-11-03T05:40:57;1.47;;;1.37;;
12814;SDS011;6472;52.328;13.070;2022-11-03T05:43:26;2.10;;;1.70;;
12814;SDS011;6472;52.328;13.070;2022-11-03T05:45:57;2.30;;;2.10;;
12814;SDS011;6472;52.328;13.070;2022-11-03T05:48:30;3.27;;;1.80;;
12814;SDS011;6472;52.328;13.070;2022-11-03T05:51:01;6.20;;;2.03;;
12814;SDS011;6472;52.328;13.070;2022-11-03T05:53:42;6.33;;;3.07;;
12814;SDS011;6472;52.328;13.070;2022-11-03T05:56:12;2.97;;;2.23;;
12814;SDS011;6472;52.328;13.070;2022-11-03T05:58:45;2.77;;;2.00;;
12814;SDS011;6472;52.328;13.070;2022-11-03T06:01:18;4.33;;;2.00;;
12814;SDS011;6472;52.328;13.070;2022-11-03T06:03:50;2.30;;;2.10;;
12814;SDS011;6472;52.328;13.070;2022-11-03T06:06:19;3.60;;;2.07;;
12814;SDS011;6472;52.328;13.070;2022-11-03T06:08:57;13.07;;;2.83;;
12814;SDS011;6472;52.328;13.070;2022-11-03T06:11:30;6.00;;;2.00;;
12814;SDS011;6472;52.328;13.070;2022-11-03T06:14:01;1.93;;;1.83;;
12814;SDS011;6472;52.328;13.070;2022-11-03T06:16:43;5.77;;;2.20;;
12814;SDS011;6472;52.328;13.070;2022-11-03T06:19:16;2.53;;;2.30;;
12814;SDS011;6472;52.328;13.070;2022-11-03T06:21:47;2.60;;;2.03;;
12814;SDS011;6472;52.328;13.070;2022-11-03T06:24:17;4.90;;;2.70;;
12814;SDS011;6472;52.328;13.070;2022-11-03T06:26:47;1.97;;;1.63;;
12814;SDS011;6472;52.328;13.070;2022-11-03T06:29:17;3.00;;;2.47;;
12814;SDS011;6472;52.328;13.070;2022-11-03T06:31:48;2.40;;;1.93;;
12814;SDS011;6472;52.328;13.070;2022-11-03T06:34:29;4.67;;;2.07;;
12814;SDS011;6472;52.328;13.070;2022-11-03T06:37:04;3.23;;;2.63;;
12814;SDS011;6472;52.328;13.070;2022-11-03T06:39:39;2.80;;;1.83;;
12814;SDS011;6472;52.328;13.070;2022-11-03T06:42:09;2.73;;;1.70;;
12814;SDS011;6472;52.328;13.070;2022-11-03T06:44:38;2.00;;;1.90;;
12814;SDS011;6472;52.328;13.070;2022-11-03T06:47:15;3.03;;;1.73;;
12814;SDS011;6472;52.328;13.070;2022-11-03T06:49:51;2.47;;;2.20;;
12814;SDS011;6472;52.328;13.070;2022-11-03T06:52:24;3.57;;;1.97;;
12814;SDS011;6472;52.328;13.070;2022-11-03T06:54:58;4.33;;;2.67;;
12814;SDS011;6472;52.328;13.070;2022-11-03T06:57:29;6.10;;;2.30;;
12814;SDS011;6472;52.328;13.070;2022-11-03T07:00:05;3.57;;;2.37;;
12814;SDS011;6472;52.328;13.070;2022-11-03T07:03:02;3.40;;;2.97;;
12814;SDS011;6472;52.328;13.070;2022-11-03T07:05:35;11.50;;;3.87;;
12814;SDS011;6472;52.328;13.070;2022-11-03T07:08:10;3.87;;;2.23;;
12814;SDS011;6472;52.328;13.070;2022-11-03T07:10:46;8.30;;;3.70;;
12814;SDS011;6472;52.328;13.070;2022-11-03T07:13:17;4.90;;;3.30;;
12814;SDS011;6472;52.328;13.070;2022-11-03T07:15:48;3.43;;;3.13;;
12814;SDS011;6472;52.328;13.070;2022-11-03T07:18:20;13.13;;;2.87;;
12814;SDS011;6472;52.328;13.070;2022-11-03T07:20:50;3.17;;;2.43;;
12814;SDS011;6472;52.328;13.070;2022-11-03T07:23:20;3.17;;;2.40;;
12814;SDS011;6472;52.328;13.070;2022-11-03T07:25:52;2.83;;;1.60;;
12814;SDS011;6472;52.328;13.070;2022-11-03T07:28:23;2.67;;;1.80;;
12814;SDS011;6472;52.328;13.070;2022-11-03T07:30:54;2.40;;;2.20;;
12814;SDS011;6472;52.328;13.070;2022-11-03T07:33:26;5.70;;;2.00;;
12814;SDS011;6472;52.328;13.070;2022-11-03T07:35:57;6.03;;;2.43;;
12814;SDS011;6472;52.328;13.070;2022-11-03T07:38:42;3.80;;;2.10;;
12814;SDS011;6472;52.328;13.070;2022-11-03T07:41:14;7.13;;;1.90;;
12814;SDS011;6472;52.328;13.070;2022-11-03T07:43:46;4.53;;;1.77;;
12814;SDS011;6472;52.328;13.070;2022-11-03T07:46:20;3.77;;;1.67;;
12814;SDS011;6472;52.328;13.070;2022-11-03T07:48:50;2.23;;;2.03;;
12814;SDS011;6472;52.328;13.070;2022-11-03T07:51:22;7.20;;;3.17;;
12814;SDS011;6472;52.328;13.070;2022-11-03T07:53:52;2.53;;;2.33;;
12814;SDS011;6472;52.328;13.070;2022-11-03T07:56:23;2.30;;;2.00;;
12814;SDS011;6472;52.328;13.070;2022-11-03T07:58:53;4.50;;;2.43;;
12814;SDS011;6472;52.328;13.070;2022-11-03T08:01:26;7.40;;;2.80;;
12814;SDS011;6472;52.328;13.070;2022-11-03T08:03:59;7.13;;;3.80;;
12814;SDS011;6472;52.328;13.070;2022-11-03T08:06:31;2.80;;;2.13;;
12814;SDS011;6472;52.328;13.070;2022-11-03T08:08:59;5.83;;;2.40;;
12814;SDS011;6472;52.328;13.070;2022-11-03T08:11:27;3.53;;;2.47;;
12814;SDS011;6472;52.328;13.070;2022-11-03T08:13:55;4.33;;;2.13;;
12814;SDS011;6472;52.328;13.070;2022-11-03T08:16:23;11.60;;;3.40;;
12814;SDS011;6472;52.328;13.070;2022-11-03T08:18:51;5.20;;;2.27;;
12814;SDS011;6472;52.328;13.070;2022-11-03T08:21:21;10.67;;;3.10;;
12814;SDS011;6472;52.328;13.070;2022-11-03T08:23:49;1.50;;;1.40;;
12814;SDS011;6472;52.328;13.070;2022-11-03T08:26:18;5.97;;;2.47;;
12814;SDS011;6472;52.328;13.070;2022-11-03T08:28:46;4.10;;;1.70;;
12814;SDS011;6472;52.328;13.070;2022-11-03T08:31:14;4.47;;;2.37;;
12814;SDS011;6472;52.328;13.070;2022-11-03T08:33:42;2.13;;;1.93;;
12814;SDS011;6472;52.328;13.070;2022-11-03T08:36:10;3.83;;;2.60;;
12814;SDS011;6472;52.328;13.070;2022-11-03T08:38:39;5.67;;;2.53;;
12814;SDS011;6472;52.328;13.070;2022-11-03T08:41:09;2.20;;;1.60;;
12814;SDS011;6472;52.328;13.070;2022-11-03T08:43:37;5.80;;;2.53;;
12814;SDS011;6472;52.328;13.070;2022-11-03T08:46:05;4.53;;;1.87;;
12814;SDS011;6472;52.328;13.070;2022-11-03T08:48:43;3.13;;;2.10;;
12814;SDS011;6472;52.328;13.070;2022-11-03T08:51:12;8.63;;;2.70;;
12814;SDS011;6472;52.328;13.070;2022-11-03T08:53:42;6.87;;;2.60;;
12814;SDS011;6472;52.328;13.070;2022-11-03T08:56:11;7.80;;;2.33;;
12814;SDS011;6472;52.328;13.070;2022-11-03T08:58:44;2.97;;;2.60;;
12814;SDS011;6472;52.328;13.070;2022-11-03T09:01:12;4.57;;;1.83;;
12814;SDS011;6472;52.328;13.070;2022-11-03T09:03:40;9.37;;;2.43;;
12814;SDS011;6472;52.328;13.070;2022-11-03T09:06:08;3.53;;;2.23;;
12814;SDS011;6472;52.328;13.070;2022-11-03T09:08:36;4.67;;;2.07;;
12814;SDS011;6472;52.328;13.070;2022-11-03T09:11:26;6.17;;;2.20;;
12814;SDS011;6472;52.328;13.070;2022-11-03T09:13:54;3.60;;;2.17;;
12814;SDS011;6472;52.328;13.070;2022-11-03T09:16:23;3.90;;;1.87;;
12814;SDS011;6472;52.328;13.070;2022-11-03T09:18:51;3.30;;;2.10;;
12814;SDS011;6472;52.328;13.070;2022-11-03T09:21:19;2.53;;;1.40;;
12814;SDS011;6472;52.328;13.070;2022-11-03T09:23:47;4.03;;;1.87;;
12814;SDS011;6472;52.328;13.070;2022-11-03T09:26:15;4.17;;;1.40;;
12814;SDS011;6472;52.328;13.070;2022-11-03T09:28:45;4.43;;;1.73;;
12814;SDS011;6472;52.328;13.070;2022-11-03T09:31:14;5.13;;;1.90;;
12814;SDS011;6472;52.328;13.070;2022-11-03T09:33:42;1.43;;;1.30;;
12814;SDS011;6472;52.328;13.070;2022-11-03T09:36:10;2.53;;;1.60;;
12814;SDS011;6472;52.328;13.070;2022-11-03T09:38:38;1.83;;;1.50;;
12814;SDS011;6472;52.328;13.070;2022-11-03T09:41:06;12.60;;;2.03;;
12814;SDS011;6472;52.328;13.070;2022-11-03T09:43:53;3.03;;;1.47;;
12814;SDS011;6472;52.328;13.070;2022-11-03T09:46:22;5.90;;;1.53;;
12814;SDS011;6472;52.328;13.070;2022-11-03T09:48:52;1.50;;;1.40;;
12814;SDS011;6472;52.328;13.070;2022-11-03T09:51:21;2.43;;;1.47;;
12814;SDS011;6472;52.328;13.070;2022-11-03T09:53:51;2.23;;;1.00;;
12814;SDS011;6472;52.328;13.070;2022-11-03T09:56:21;2.27;;;1.00;;
12814;SDS011;6472;52.328;13.070;2022-11-03T09:58:53;1.00;;;0.90;;
12814;SDS011;6472;52.328;13.070;2022-11-03T10:01:21;3.13;;;1.30;;
12814;SDS011;6472;52.328;13.070;2022-11-03T10:03:49;3.47;;;1.30;;
12814;SDS011;6472;52.328;13.070;2022-11-03T10:06:17;2.57;;;0.90;;
12814;SDS011;6472;52.328;13.070;2022-11-03T10:08:46;3.40;;;1.20;;
12814;SDS011;6472;52.328;13.070;2022-11-03T10:11:15;1.63;;;0.80;;
12814;SDS011;6472;52.328;13.070;2022-11-03T10:13:44;0.80;;;0.80;;
12814;SDS011;6472;52.328;13.070;2022-11-03T10:16:16;2.60;;;1.10;;
12814;SDS011;6472;52.328;13.070;2022-11-03T10:18:46;3.73;;;1.27;;
12814;SDS011;6472;52.328;13.070;2022-11-03T10:21:16;2.73;;;1.23;;
12814;SDS011;6472;52.328;13.070;2022-11-03T10:23:46;1.13;;;1.00;;
12814;SDS011;6472;52.328;13.070;2022-11-03T10:26:15;0.77;;;0.73;;
12814;SDS011;6472;52.328;13.070;2022-11-03T10:28:58;3.07;;;1.30;;
12814;SDS011;6472;52.328;13.070;2022-11-03T10:31:33;2.70;;;1.00;;
12814;SDS011;6472;52.328;13.070;2022-11-03T10:34:02;2.80;;;1.30;;
12814;SDS011;6472;52.328;13.070;2022-11-03T10:36:31;5.67;;;1.87;;
12814;SDS011;6472;52.328;13.070;2022-11-03T10:39:04;3.20;;;1.17;;
12814;SDS011;6472;52.328;13.070;2022-11-03T10:41:54;2.53;;;1.57;;
12814;SDS011;6472;52.328;13.070;2022-11-03T10:44:24;8.30;;;1.27;;
12814;SDS011;6472;52.328;13.070;2022-11-03T10:46:58;5.93;;;1.73;;
12814;SDS011;6472;52.328;13.070;2022-11-03T10:49:27;6.60;;;1.50;;
12814;SDS011;6472;52.328;13.070;2022-11-03T10:52:14;3.33;;;1.30;;
12814;SDS011;6472;52.328;13.070;2022-11-03T10:54:46;3.93;;;1.30;;
12814;SDS011;6472;52.328;13.070;2022-11-03T10:57:14;3.43;;;1.73;;
12814;SDS011;6472;52.328;13.070;2022-11-03T10:59:44;6.73;;;1.47;;
12814;SDS011;6472;52.328;13.070;2022-11-03T11:02:17;4.43;;;1.00;;
12814;SDS011;6472;52.328;13.070;2022-11-03T11:04:46;2.50;;;0.80;;
12814;SDS011;6472;52.328;13.070;2022-11-03T11:07:17;2.97;;;1.00;;
12814;SDS011;6472;52.328;13.070;2022-11-03T11:09:48;8.73;;;1.23;;
12814;SDS011;6472;52.328;13.070;2022-11-03T11:12:17;4.60;;;1.23;;
12814;SDS011;6472;52.328;13.070;2022-11-03T11:14:52;1.23;;;0.97;;
12814;SDS011;6472;52.328;13.070;2022-11-03T11:17:42;3.63;;;1.30;;
12814;SDS011;6472;52.328;13.070;2022-11-03T11:20:31;2.43;;;1.23;;
12814;SDS011;6472;52.328;13.070;2022-11-03T11:26:16;3.27;;;1.00;;
12814;SDS011;6472;52.328;13.070;2022-11-03T11:44:51;1.27;;;1.17;;
12814;SDS011;6472;52.328;13.070;2022-11-03T11:47:30;1.43;;;1.00;;
12814;SDS011;6472;52.328;13.070;2022-11-03T11:50:23;2.50;;;1.10;;
12814;SDS011;6472;52.328;13.070;2022-11-03T11:52:55;7.37;;;1.43;;
12814;SDS011;6472;52.328;13.070;2022-11-03T11:55:41;1.73;;;1.23;;
12814;SDS011;6472;52.328;13.070;2022-11-03T11:58:14;3.57;;;0.90;;
12814;SDS011;6472;52.328;13.070;2022-11-03T12:00:52;1.13;;;0.80;;
12814;SDS011;6472;52.328;13.070;2022-11-03T12:03:29;2.53;;;0.73;;
12814;SDS011;6472;52.328;13.070;2022-11-03T12:06:03;2.07;;;1.07;;
12814;SDS011;6472;52.328;13.070;2022-11-03T12:08:31;2.70;;;1.20;;
12814;SDS011;6472;52.328;13.070;2022-11-03T12:11:02;1.90;;;0.97;;
12814;SDS011;6472;52.328;13.070;2022-11-03T12:13:45;6.30;;;1.43;;
12814;SDS011;6472;52.328;13.070;2022-11-03T12:16:27;1.20;;;1.10;;
12814;SDS011;6472;52.328;13.070;2022-11-03T12:22:00;2.37;;;1.10;;
12814;SDS011;6472;52.328;13.070;2022-11-03T12:24:33;2.87;;;0.97;;
12814;SDS011;6472;52.328;13.070;2022-11-03T12:27:16;3.30;;;1.17;;
12814;SDS011;6472;52.328;13.070;2022-11-03T12:30:00;3.67;;;1.60;;
12814;SDS011;6472;52.328;13.070;2022-11-03T12:32:30;5.53;;;0.97;;
12814;SDS011;6472;52.328;13.070;2022-11-03T12:35:00;1.80;;;1.27;;
12814;SDS011;6472;52.328;13.070;2022-11-03T12:37:29;1.17;;;0.90;;
12814;SDS011;6472;52.328;13.070;2022-11-03T12:39:57;1.37;;;1.27;;
12814;SDS011;6472;52.328;13.070;2022-11-03T12:42:26;2.67;;;1.37;;
12814;SDS011;6472;52.328;13.070;2022-11-03T12:44:54;1.70;;;1.23;;
12814;SDS011;6472;52.328;13.070;2022-11-03T12:47:23;4.03;;;1.47;;
12814;SDS011;6472;52.328;13.070;2022-11-03T12:49:51;2.20;;;1.13;;
12814;SDS011;6472;52.328;13.070;2022-11-03T12:52:19;2.40;;;1.33;;
12814;SDS011;6472;52.328;13.070;2022-11-03T12:54:47;2.37;;;1.63;;
12814;SDS011;6472;52.328;13.070;2022-11-03T12:57:15;1.80;;;0.70;;
12814;SDS011;6472;52.328;13.070;2022-11-03T12:59:44;1.80;;;1.33;;
12814;SDS011;6472;52.328;13.070;2022-11-03T13:02:12;3.00;;;1.30;;
12814;SDS011;6472;52.328;13.070;2022-11-03T13:04:41;1.13;;;0.97;;
12814;SDS011;6472;52.328;13.070;2022-11-03T13:07:09;6.80;;;1.13;;
12814;SDS011;6472;52.328;13.070;2022-11-03T13:09:37;1.80;;;1.37;;
12814;SDS011;6472;52.328;13.070;2022-11-03T13:12:05;2.73;;;1.27;;
12814;SDS011;6472;52.328;13.070;2022-11-03T13:14:52;6.00;;;1.40;;
12814;SDS011;6472;52.328;13.070;2022-11-03T13:17:20;5.20;;;1.50;;
12814;SDS011;6472;52.328;13.070;2022-11-03T13:19:48;2.50;;;1.27;;
12814;SDS011;6472;52.328;13.070;2022-11-03T13:22:20;8.10;;;1.43;;
12814;SDS011;6472;52.328;13.070;2022-11-03T13:24:48;2.03;;;1.47;;
12814;SDS011;6472;52.328;13.070;2022-11-03T13:27:16;8.17;;;1.87;;
12814;SDS011;6472;52.328;13.070;2022-11-03T13:29:44;6.10;;;1.63;;
12814;SDS011;6472;52.328;13.070;2022-11-03T13:32:13;4.40;;;1.40;;
12814;SDS011;6472;52.328;13.070;2022-11-03T13:34:42;3.13;;;1.03;;
12814;SDS011;6472;52.328;13.070;2022-11-03T13:37:13;1.50;;;1.07;;
12814;SDS011;6472;52.328;13.070;2022-11-03T13:40:03;2.37;;;1.30;;
12814;SDS011;6472;52.328;13.070;2022-11-03T13:42:56;2.43;;;1.23;;
12814;SDS011;6472;52.328;13.070;2022-11-03T13:45:35;3.33;;;1.33;;
12814;SDS011;6472;52.328;13.070;2022-11-03T13:48:56;5.17;;;1.43;;
12814;SDS011;6472;52.328;13.070;2022-11-03T13:51:44;14.20;;;1.40;;
12814;SDS011;6472;52.328;13.070;2022-11-03T13:54:12;2.33;;;1.13;;
12814;SDS011;6472;52.328;13.070;2022-11-03T13:57:01;6.67;;;1.57;;
12814;SDS011;6472;52.328;13.070;2022-11-03T13:59:49;3.53;;;1.10;;
12814;SDS011;6472;52.328;13.070;2022-11-03T14:02:17;5.57;;;1.13;;
12814;SDS011;6472;52.328;13.070;2022-11-03T14:05:07;6.00;;;1.87;;
12814;SDS011;6472;52.328;13.070;2022-11-03T14:07:37;3.43;;;1.20;;
12814;SDS011;6472;52.328;13.070;2022-11-03T14:10:05;1.57;;;1.27;;
12814;SDS011;6472;52.328;13.070;2022-11-03T14:12:34;0.83;;;0.83;;
12814;SDS011;6472;52.328;13.070;2022-11-03T14:15:03;3.80;;;1.30;;
12814;SDS011;6472;52.328;13.070;2022-11-03T14:17:32;1.90;;;1.40;;
12814;SDS011;6472;52.328;13.070;2022-11-03T14:20:01;4.40;;;1.10;;
12814;SDS011;6472;52.328;13.070;2022-11-03T14:22:31;4.27;;;0.90;;
12814;SDS011;6472;52.328;13.070;2022-11-03T14:24:59;3.10;;;1.40;;
12814;SDS011;6472;52.328;13.070;2022-11-03T14:27:28;1.87;;;1.20;;
12814;SDS011;6472;52.328;13.070;2022-11-03T14:29:56;2.90;;;1.10;;
12814;SDS011;6472;52.328;13.070;2022-11-03T14:32:24;4.47;;;1.67;;
12814;SDS011;6472;52.328;13.070;2022-11-03T14:34:52;3.17;;;1.33;;
12814;SDS011;6472;52.328;13.070;2022-11-03T14:37:20;6.47;;;1.73;;
12814;SDS011;6472;52.328;13.070;2022-11-03T14:39:52;2.67;;;1.40;;
12814;SDS011;6472;52.328;13.070;2022-11-03T14:42:20;2.27;;;1.27;;
12814;SDS011;6472;52.328;13.070;2022-11-03T14:44:47;2.10;;;1.17;;
12814;SDS011;6472;52.328;13.070;2022-11-03T14:47:16;2.97;;;1.03;;
12814;SDS011;6472;52.328;13.070;2022-11-03T14:49:47;1.30;;;1.00;;
12814;SDS011;6472;52.328;13.070;2022-11-03T14:52:15;2.87;;;1.17;;
12814;SDS011;6472;52.328;13.070;2022-11-03T14:54:44;2.57;;;1.27;;
12814;SDS011;6472;52.328;13.070;2022-11-03T14:57:13;1.77;;;1.20;;
12814;SDS011;6472;52.328;13.070;2022-11-03T14:59:41;2.30;;;1.30;;
12814;SDS011;6472;52.328;13.070;2022-11-03T15:02:14;4.40;;;1.87;;
12814;SDS011;6472;52.328;13.070;2022-11-03T15:04:42;6.30;;;1.80;;
12814;SDS011;6472;52.328;13.070;2022-11-03T15:07:10;2.53;;;1.10;;
12814;SDS011;6472;52.328;13.070;2022-11-03T15:09:38;4.27;;;1.50;;
12814;SDS011;6472;52.328;13.070;2022-11-03T15:12:06;4.53;;;1.73;;
12814;SDS011;6472;52.328;13.070;2022-11-03T15:14:36;2.07;;;1.70;;
12814;SDS011;6472;52.328;13.070;2022-11-03T15:17:04;1.87;;;1.10;;
12814;SDS011;6472;52.328;13.070;2022-11-03T15:19:32;3.97;;;1.43;;
12814;SDS011;6472;52.328;13.070;2022-11-03T15:22:00;1.30;;;1.20;;
12814;SDS011;6472;52.328;13.070;2022-11-03T15:24:28;5.93;;;1.50;;
12814;SDS011;6472;52.328;13.070;2022-11-03T15:27:16;2.93;;;1.70;;
12814;SDS011;6472;52.328;13.070;2022-11-03T15:29:46;3.00;;;1.13;;
12814;SDS011;6472;52.328;13.070;2022-11-03T15:32:14;3.00;;;1.90;;
12814;SDS011;6472;52.328;13.070;2022-11-03T15:34:42;4.33;;;2.23;;
12814;SDS011;6472;52.328;13.070;2022-11-03T15:37:10;4.63;;;2.03;;
12814;SDS011;6472;52.328;13.070;2022-11-03T15:39:38;4.33;;;2.17;;
12814;SDS011;6472;52.328;13.070;2022-11-03T15:42:06;4.27;;;2.20;;